Time;durP1;ratioP1;P1;durP2;ratioP2;P2;SDS_P1;SDS_P2;PMS_P1;PMS_P2;Temp;Humidity;BMP_temperature;BMP_pressure;BME280_temperature;BME280_humidity;BME280_pressure;Samples;Min_cycle;Max_cycle;Signal;HPM_P1;HPM_P2
2023/09/29 00:01:16;;;;;;;6.87;6.27;;;16.40;99.90;;;;;;5041654;28;20447;-77
2023/09/29 00:04:06;;;;;;;7.20;5.50;;;16.40;99.90;;;;;;5041091;28;20458;-79
2023/09/29 00:06:59;;;;;;;8.30;5.90;;;16.40;99.90;;;;;;5042828;28;20474;-79
2023/09/29 00:09:52;;;;;;;6.97;5.60;;;16.10;99.90;;;;;;5043655;28;20457;-78
2023/09/29 00:12:49;;;;;;;6.50;5.40;;;16.10;99.90;;;;;;5041212;28;20551;-79
2023/09/29 00:15:43;;;;;;;6.40;5.80;;;16.30;99.90;;;;;;5038381;28;20470;-79
2023/09/29 00:18:52;;;;;;;6.17;5.67;;;16.20;99.90;;;;;;5039157;28;20474;-78
2023/09/29 00:22:09;;;;;;;6.90;6.17;;;16.20;99.90;;;;;;5039610;28;20513;-79
2023/09/29 00:25:14;;;;;;;7.07;5.97;;;16.20;99.90;;;;;;5026400;28;20523;-78
2023/09/29 00:31:22;;;;;;;7.70;6.60;;;16.10;99.90;;;;;;5036244;28;20474;-80
2023/09/29 00:37:41;;;;;;;6.10;5.60;;;16.10;99.90;;;;;;5016001;28;20521;-78
2023/09/29 00:43:23;;;;;;;5.33;4.83;;;16.10;99.90;;;;;;5022785;28;20435;-79
2023/09/29 00:46:25;;;;;;;8.23;5.53;;;16.00;99.90;;;;;;5038873;28;20469;-78
2023/09/29 00:49:17;;;;;;;6.70;4.93;;;15.90;99.90;;;;;;4999558;28;20442;-81
2023/09/29 00:52:08;;;;;;;5.50;4.60;;;15.90;99.90;;;;;;5038958;28;20478;-79
2023/09/29 00:54:56;;;;;;;10.20;5.67;;;16.00;99.90;;;;;;5037621;28;20562;-79
2023/09/29 00:57:28;;;;;;;8.10;5.73;;;15.80;99.90;;;;;;5036555;28;20462;-79
2023/09/29 01:00:29;;;;;;;6.67;6.07;;;15.70;99.90;;;;;;5037778;28;20458;-80
2023/09/29 01:03:31;;;;;;;;;;;;;;;;;;;;;
2023/09/29 01:06:25;;;;;;;6.70;5.87;;;15.70;99.90;;;;;;5058714;28;20472;-78
2023/09/29 01:09:13;;;;;;;5.53;4.87;;;15.70;99.90;;;;;;5063525;28;20454;-79
2023/09/29 01:11:52;;;;;;;4.90;4.50;;;15.70;99.90;;;;;;5061743;28;20508;-79
2023/09/29 01:14:20;;;;;;;6.17;5.33;;;15.70;99.90;;;;;;5058443;28;20881;-80
2023/09/29 01:17:21;;;;;;;5.53;5.03;;;15.60;99.90;;;;;;5057686;28;20462;-78
2023/09/29 01:19:50;;;;;;;6.53;5.40;;;15.60;99.90;;;;;;5058534;28;20967;-79
2023/09/29 01:22:18;;;;;;;7.17;5.23;;;15.30;99.90;;;;;;5057729;28;20446;-79
2023/09/29 01:25:07;;;;;;;6.93;5.17;;;15.60;99.90;;;;;;5058008;28;20471;-80
2023/09/29 01:27:39;;;;;;;6.23;5.63;;;15.60;99.90;;;;;;5058478;28;20821;-80
2023/09/29 01:34:26;;;;;;;5.10;4.70;;;15.50;99.90;;;;;;5037446;28;20534;-79
2023/09/29 01:37:03;;;;;;;6.17;5.10;;;15.50;99.90;;;;;;5005638;28;20445;-79
2023/09/29 01:39:57;;;;;;;7.20;5.00;;;15.40;99.90;;;;;;5062866;28;20445;-80
2023/09/29 01:42:42;;;;;;;6.23;5.50;;;15.40;99.90;;;;;;5062014;28;21189;-80
2023/09/29 01:45:25;;;;;;;11.33;5.67;;;15.40;99.90;;;;;;5060310;28;20822;-79
2023/09/29 01:48:05;;;;;;;5.07;4.67;;;15.40;99.90;;;;;;5059881;28;20452;-79
2023/09/29 01:50:49;;;;;;;5.67;4.97;;;15.30;99.90;;;;;;5061187;28;20462;-79
2023/09/29 01:57:06;;;;;;;5.33;4.83;;;15.00;99.90;;;;;;5048940;23;20480;-80
2023/09/29 02:02:38;;;;;;;5.03;4.53;;;15.20;99.90;;;;;;5043089;28;20469;-80
2023/09/29 02:05:38;;;;;;;5.40;4.90;;;15.20;99.90;;;;;;5027774;28;20978;-80
2023/09/29 02:08:14;;;;;;;5.60;5.10;;;15.10;99.90;;;;;;5030954;28;20451;-78
2023/09/29 02:10:56;;;;;;;5.80;4.43;;;15.10;99.90;;;;;;5048539;28;20461;-79
2023/09/29 02:13:36;;;;;;;5.40;4.90;;;15.10;99.90;;;;;;5050056;28;20448;-79
2023/09/29 02:16:19;;;;;;;5.50;5.00;;;15.40;99.90;;;;;;5038670;28;20498;-80
2023/09/29 02:18:56;;;;;;;5.57;5.17;;;15.10;99.90;;;;;;5045552;28;20956;-79
2023/09/29 02:22:16;;;;;;;5.43;5.03;;;14.70;99.90;;;;;;5044707;28;20998;-79
2023/09/29 02:25:10;;;;;;;5.70;5.10;;;15.00;99.90;;;;;;5039797;28;20650;-78
2023/09/29 02:31:46;;;;;;;5.70;5.10;;;14.90;99.90;;;;;;4919799;29;20458;-79
2023/09/29 02:34:52;;;;;;;;;;;;;;;;;;;;;
2023/09/29 02:38:02;;;;;;;5.60;5.10;;;14.90;99.90;;;;;;4946371;29;20450;-79
2023/09/29 02:40:54;;;;;;;5.30;4.90;;;14.90;99.90;;;;;;4990065;28;20536;-78
2023/09/29 02:43:36;;;;;;;5.40;5.00;;;14.90;99.90;;;;;;5047310;28;20449;-78
2023/09/29 02:46:09;;;;;;;5.53;5.13;;;14.90;99.90;;;;;;5045587;28;20485;-78
2023/09/29 02:48:53;;;;;;;4.90;4.50;;;14.50;99.90;;;;;;5047648;28;20476;-81
2023/09/29 02:54:49;;;;;;;6.30;4.90;;;14.80;99.90;;;;;;5048159;28;20535;-79
2023/09/29 02:57:26;;;;;;;5.00;4.57;;;14.80;99.90;;;;;;5042258;28;20446;-80
2023/09/29 03:00:18;;;;;;;5.40;5.00;;;14.80;99.90;;;;;;5051594;28;21033;-78
2023/09/29 03:02:58;;;;;;;5.57;4.70;;;14.80;99.90;;;;;;5049116;28;20446;-79
2023/09/29 03:05:32;;;;;;;7.00;4.77;;;14.80;99.90;;;;;;5055715;28;20484;-79
2023/09/29 03:08:07;;;;;;;4.77;4.37;;;14.70;99.90;;;;;;5049641;28;20445;-79
2023/09/29 03:10:37;;;;;;;6.97;4.87;;;14.80;99.90;;;;;;5048718;28;21031;-80
2023/09/29 03:13:16;;;;;;;5.63;5.00;;;14.80;99.90;;;;;;5051257;28;20549;-80
2023/09/29 03:15:52;;;;;;;4.70;4.40;;;14.70;99.90;;;;;;5052596;28;20480;-78
2023/09/29 03:18:36;;;;;;;5.43;4.90;;;14.70;99.90;;;;;;5020550;28;20459;-79
2023/09/29 03:21:18;;;;;;;5.23;4.50;;;14.70;99.90;;;;;;5022200;28;20502;-78
2023/09/29 03:27:21;;;;;;;4.50;4.00;;;14.60;99.90;;;;;;5015702;28;20546;-80
2023/09/29 03:29:58;;;;;;;5.23;4.73;;;14.60;99.90;;;;;;5015302;28;20451;-80
2023/09/29 03:32:35;;;;;;;4.70;4.30;;;14.60;99.90;;;;;;5016305;28;20617;-79
2023/09/29 03:35:11;;;;;;;5.40;4.70;;;14.60;99.90;;;;;;5017499;28;20475;-79
2023/09/29 03:37:49;;;;;;;5.80;5.27;;;14.60;99.90;;;;;;5022953;28;20450;-78
2023/09/29 03:40:50;;;;;;;6.23;5.60;;;14.60;99.90;;;;;;5027742;28;20451;-78
2023/09/29 03:46:38;;;;;;;6.13;4.93;;;14.80;99.90;;;;;;5012744;28;20471;-79
2023/09/29 03:55:57;;;;;;;5.50;4.70;;;14.50;99.90;;;;;;4943753;29;20533;-78
2023/09/29 03:58:28;;;;;;;5.30;4.80;;;14.40;99.90;;;;;;4965200;28;20455;-80
2023/09/29 04:04:08;;;;;;;5.53;5.03;;;14.40;99.90;;;;;;5021458;28;20451;-80
2023/09/29 04:07:01;;;;;;;5.77;5.17;;;14.40;99.90;;;;;;5021012;28;20467;-80
2023/09/29 04:09:50;;;;;;;5.20;4.70;;;14.30;99.90;;;;;;5026213;28;20501;-80
2023/09/29 04:12:48;;;;;;;5.60;4.70;;;14.30;99.90;;;;;;5024281;28;20482;-78
2023/09/29 04:15:29;;;;;;;5.57;4.90;;;14.40;99.90;;;;;;5022836;28;20471;-79
2023/09/29 04:18:12;;;;;;;5.30;4.80;;;14.40;99.90;;;;;;5023281;28;20528;-78
2023/09/29 04:20:48;;;;;;;5.20;4.77;;;14.40;99.90;;;;;;5024398;28;20455;-79
2023/09/29 04:23:25;;;;;;;5.10;4.60;;;14.40;99.90;;;;;;5027719;28;20450;-79
2023/09/29 04:25:56;;;;;;;9.17;4.93;;;14.30;99.90;;;;;;5026279;28;20533;-79
2023/09/29 04:28:28;;;;;;;6.00;5.40;;;14.00;99.90;;;;;;5025548;28;20459;-80
2023/09/29 04:31:00;;;;;;;5.83;5.23;;;14.30;99.90;;;;;;5025710;28;20478;-79
2023/09/29 04:33:35;;;;;;;6.00;5.40;;;14.30;99.90;;;;;;5024756;28;20517;-80
2023/09/29 04:36:05;;;;;;;5.37;4.87;;;14.40;99.90;;;;;;5019975;28;20478;-79
2023/09/29 04:38:33;;;;;;;4.93;4.57;;;14.40;99.90;;;;;;5018501;28;20450;-80
2023/09/29 04:44:23;;;;;;;7.33;6.27;;;14.40;99.90;;;;;;5015348;28;20427;-79
2023/09/29 04:46:56;;;;;;;4.83;4.43;;;14.50;99.90;;;;;;5016234;28;20829;-79
2023/09/29 04:49:26;;;;;;;5.77;5.30;;;14.50;99.90;;;;;;5016510;28;20944;-79
2023/09/29 04:51:58;;;;;;;6.80;6.10;;;14.50;99.90;;;;;;5015375;28;20463;-80
2023/09/29 04:54:29;;;;;;;5.97;5.33;;;14.50;99.90;;;;;;5018851;28;20421;-81
2023/09/29 04:59:55;;;;;;;6.03;4.70;;;14.60;99.90;;;;;;5011115;28;20836;-82
2023/09/29 05:02:24;;;;;;;5.37;4.87;;;14.60;99.90;;;;;;5026486;28;20446;-80
2023/09/29 05:04:56;;;;;;;6.30;5.70;;;14.70;99.90;;;;;;5038887;28;20462;-80
2023/09/29 05:07:29;;;;;;;5.23;4.83;;;14.60;99.90;;;;;;5039364;28;20450;-81
2023/09/29 05:10:18;;;;;;;5.37;4.87;;;14.70;99.90;;;;;;5041187;28;20576;-79
2023/09/29 05:12:46;;;;;;;6.03;5.43;;;14.80;99.90;;;;;;5040313;28;20471;-79
2023/09/29 05:15:26;;;;;;;6.87;5.03;;;14.80;99.90;;;;;;5039250;28;20470;-80
2023/09/29 05:17:53;;;;;;;5.87;5.20;;;14.80;99.90;;;;;;5039133;28;20454;-80
2023/09/29 05:20:26;;;;;;;7.80;5.60;;;15.00;99.90;;;;;;5038648;28;20447;-80
2023/09/29 05:22:54;;;;;;;6.47;5.37;;;14.90;99.90;;;;;;5038711;28;20450;-80
2023/09/29 05:25:46;;;;;;;5.27;4.77;;;15.10;99.90;;;;;;5041352;28;20473;-82
2023/09/29 05:28:26;;;;;;;6.80;5.60;;;14.90;99.90;;;;;;5037954;28;20453;-80
2023/09/29 05:38:35;;;;;;;6.30;5.70;;;14.90;99.90;;;;;;4999779;28;20467;-80
2023/09/29 05:41:15;;;;;;;8.60;5.97;;;14.90;99.90;;;;;;5036284;28;20478;-81
2023/09/29 05:43:52;;;;;;;6.13;5.53;;;15.00;99.90;;;;;;5039212;28;20858;-82
2023/09/29 05:46:25;;;;;;;6.13;5.17;;;15.10;99.90;;;;;;5038023;28;20462;-80
2023/09/29 05:48:56;;;;;;;6.37;5.67;;;15.20;99.90;;;;;;5040351;28;20526;-81
2023/09/29 05:51:33;;;;;;;5.93;5.43;;;15.20;99.90;;;;;;5038645;28;20442;-79
2023/09/29 05:54:17;;;;;;;6.93;5.47;;;15.20;99.90;;;;;;5037126;28;20478;-82
2023/09/29 05:57:00;;;;;;;8.10;5.10;;;15.20;99.90;;;;;;5036868;28;20490;-80
2023/09/29 06:00:31;;;;;;;6.87;5.50;;;15.30;99.90;;;;;;5038659;28;20446;-81
2023/09/29 06:03:24;;;;;;;9.07;5.60;;;15.30;99.90;;;;;;4926242;28;20450;-81
2023/09/29 06:05:54;;;;;;;7.17;5.50;;;15.30;99.90;;;;;;5040217;28;20471;-80
2023/09/29 06:08:35;;;;;;;6.33;5.17;;;15.40;99.90;;;;;;5039616;28;20450;-81
2023/09/29 06:11:09;;;;;;;7.40;6.00;;;15.40;99.90;;;;;;5039888;28;20447;-80
2023/09/29 06:13:48;;;;;;;7.10;5.43;;;15.50;99.90;;;;;;5040474;28;20631;-82
2023/09/29 06:16:26;;;;;;;7.70;5.70;;;15.50;99.90;;;;;;5038672;28;20589;-83
2023/09/29 06:19:03;;;;;;;7.90;5.70;;;15.50;99.90;;;;;;5038902;28;20477;-78
2023/09/29 06:21:52;;;;;;;6.67;5.47;;;15.60;99.90;;;;;;5035131;28;20861;-80
2023/09/29 06:27:32;;;;;;;7.80;6.10;;;15.70;99.90;;;;;;5040548;28;20557;-81
2023/09/29 06:30:04;;;;;;;8.40;6.13;;;15.70;99.90;;;;;;5043818;28;20443;-81
2023/09/29 06:32:36;;;;;;;6.13;5.63;;;15.80;99.90;;;;;;5040640;28;20470;-79
2023/09/29 06:35:44;;;;;;;6.40;5.80;;;15.90;99.90;;;;;;5040170;28;20457;-80
2023/09/29 06:38:32;;;;;;;6.60;5.83;;;15.90;99.90;;;;;;5037898;28;20454;-78
2023/09/29 06:41:05;;;;;;;8.20;5.70;;;16.00;99.90;;;;;;5039582;28;20485;-81
2023/09/29 06:43:37;;;;;;;7.40;5.10;;;16.00;99.90;;;;;;5037605;28;20458;-80
2023/09/29 06:46:20;;;;;;;6.37;5.70;;;16.10;99.90;;;;;;5034624;28;20475;-81
2023/09/29 06:48:57;;;;;;;8.00;7.30;;;16.10;99.90;;;;;;5034357;28;20954;-82
2023/09/29 06:51:46;;;;;;;7.70;6.73;;;16.20;99.90;;;;;;5038635;28;20454;-82
2023/09/29 06:57:22;;;;;;;7.13;6.00;;;16.40;99.90;;;;;;5030964;28;20837;-80
2023/09/29 07:00:03;;;;;;;6.87;5.40;;;16.20;99.90;;;;;;5035950;28;20457;-79
2023/09/29 07:02:38;;;;;;;6.47;5.20;;;16.50;99.90;;;;;;5035626;28;20500;-79
2023/09/29 07:05:32;;;;;;;6.10;5.60;;;16.60;99.90;;;;;;5038312;28;20473;-78
2023/09/29 07:08:11;;;;;;;8.40;6.17;;;16.60;99.90;;;;;;5036107;28;20439;-82
2023/09/29 07:10:45;;;;;;;6.80;6.20;;;16.70;99.90;;;;;;5036230;28;20478;-79
2023/09/29 07:13:24;;;;;;;6.23;5.70;;;16.80;99.90;;;;;;5039357;28;21017;-81
2023/09/29 07:15:54;;;;;;;6.50;5.90;;;16.80;99.90;;;;;;5042796;28;20475;-82
2023/09/29 07:18:30;;;;;;;6.57;5.37;;;16.90;99.90;;;;;;5040133;28;20457;-82
2023/09/29 07:21:03;;;;;;;5.83;5.33;;;16.90;99.90;;;;;;5040310;28;20977;-81
2023/09/29 07:23:41;;;;;;;6.37;5.77;;;17.00;99.90;;;;;;5039686;28;20491;-82
2023/09/29 07:26:16;;;;;;;6.30;5.67;;;17.10;99.90;;;;;;5037777;28;20994;-79
2023/09/29 07:28:48;;;;;;;10.20;5.70;;;17.20;99.90;;;;;;5036555;28;21111;-80
2023/09/29 07:31:19;;;;;;;6.67;5.20;;;17.00;99.90;;;;;;5036661;28;20458;-79
2023/09/29 07:33:55;;;;;;;9.37;5.67;;;17.30;99.90;;;;;;5035782;28;20501;-83
2023/09/29 07:36:49;;;;;;;8.00;5.63;;;17.30;99.90;;;;;;5036319;28;20478;-80
2023/09/29 07:39:34;;;;;;;6.67;5.43;;;17.40;99.90;;;;;;5036222;28;20528;-83
2023/09/29 07:42:21;;;;;;;7.60;5.90;;;17.40;99.90;;;;;;5035464;28;20458;-79
2023/09/29 07:45:00;;;;;;;6.60;5.90;;;17.50;99.90;;;;;;5035706;28;20998;-79
2023/09/29 07:47:51;;;;;;;6.93;5.77;;;17.80;99.90;;;;;;5036425;28;20517;-81
2023/09/29 07:50:24;;;;;;;7.27;5.30;;;17.70;99.90;;;;;;5036153;28;20808;-83
2023/09/29 07:53:25;;;;;;;6.90;6.13;;;17.80;99.90;;;;;;5039452;28;20478;-79
2023/09/29 07:55:57;;;;;;;5.97;5.37;;;17.90;99.90;;;;;;5035530;28;20502;-78
2023/09/29 07:58:38;;;;;;;6.97;4.83;;;18.00;99.90;;;;;;5036782;28;20554;-80
2023/09/29 08:01:08;;;;;;;6.47;5.50;;;18.20;99.90;;;;;;5037268;28;20481;-82
2023/09/29 08:03:38;;;;;;;7.03;6.13;;;18.40;99.90;;;;;;5025529;28;20842;-82
2023/09/29 08:06:08;;;;;;;6.20;5.60;;;18.50;99.90;;;;;;5014645;28;20471;-79
2023/09/29 08:08:39;;;;;;;9.30;6.00;;;18.70;99.90;;;;;;5015442;28;20455;-81
2023/09/29 08:11:10;;;;;;;6.20;5.20;;;18.80;99.90;;;;;;5015458;28;20568;-80
2023/09/29 08:13:53;;;;;;;8.30;5.90;;;18.90;99.90;;;;;;5015794;28;20486;-82
2023/09/29 08:16:32;;;;;;;6.20;5.60;;;19.00;99.90;;;;;;5030887;28;20483;-81
2023/09/29 08:19:12;;;;;;;6.70;6.10;;;19.00;99.90;;;;;;5029276;28;20554;-81
2023/09/29 08:21:49;;;;;;;7.03;5.80;;;19.30;99.90;;;;;;5038849;28;20521;-79
2023/09/29 08:24:35;;;;;;;7.80;5.43;;;19.30;99.90;;;;;;5038729;28;20545;-79
2023/09/29 08:27:15;;;;;;;5.73;4.90;;;19.20;99.90;;;;;;5023431;28;20463;-80
2023/09/29 08:30:30;;;;;;;8.33;5.73;;;19.90;99.90;;;;;;5041669;28;20434;-79
2023/09/29 08:33:32;;;;;;;5.87;5.37;;;20.30;99.90;;;;;;5020808;28;20483;-82
2023/09/29 08:36:52;;;;;;;6.37;5.73;;;20.60;99.90;;;;;;5028351;28;20461;-81
2023/09/29 08:39:29;;;;;;;8.10;5.93;;;20.60;99.90;;;;;;5049947;28;20442;-80
2023/09/29 08:42:25;;;;;;;6.17;5.57;;;20.60;99.90;;;;;;5039655;28;20516;-85
2023/09/29 08:48:25;;;;;;;9.17;6.27;;;20.70;99.90;;;;;;5016029;28;20486;-80
2023/09/29 08:58:17;;;;;;;10.40;5.60;;;20.80;99.90;;;;;;4919376;28;20454;-80
2023/09/29 09:01:17;;;;;;;8.33;6.00;;;21.00;99.90;;;;;;4973841;28;20488;-79
2023/09/29 09:04:14;;;;;;;7.20;6.50;;;21.40;99.90;;;;;;4997507;28;20468;-78
2023/09/29 09:09:50;;;;;;;9.53;6.20;;;22.70;99.90;;;;;;5001998;28;20527;-79
2023/09/29 09:16:00;;;;;;;7.90;5.10;;;23.60;99.90;;;;;;5043338;28;20449;-80
2023/09/29 09:18:40;;;;;;;8.27;5.27;;;24.00;99.90;;;;;;5043711;28;20454;-81
2023/09/29 09:21:18;;;;;;;13.37;12.07;;;24.50;99.90;;;;;;5037797;28;20593;-82
2023/09/29 09:23:59;;;;;;;5.60;4.83;;;25.00;99.90;;;;;;5037830;28;20438;-82
2023/09/29 09:26:40;;;;;;;5.97;5.10;;;25.40;99.90;;;;;;5038936;28;20470;-82
2023/09/29 09:29:20;;;;;;;5.50;5.00;;;25.90;99.90;;;;;;5030752;28;20822;-79
2023/09/29 09:31:59;;;;;;;6.43;5.47;;;26.30;99.90;;;;;;5039441;28;20449;-82
2023/09/29 09:34:50;;;;;;;8.43;5.07;;;26.70;99.90;;;;;;5045203;28;20477;-81
2023/09/29 09:37:48;;;;;;;8.00;5.20;;;26.40;99.90;;;;;;5037212;28;21002;-82
2023/09/29 09:40:24;;;;;;;5.53;4.90;;;26.20;99.90;;;;;;5034394;28;20530;-80
2023/09/29 09:43:10;;;;;;;7.13;4.33;;;26.30;99.90;;;;;;5038419;28;20454;-80
2023/09/29 10:12:17;;;;;;;6.03;3.20;;;27.10;99.90;;;;;;4999637;28;20460;-82
2023/09/29 10:14:48;;;;;;;3.27;2.97;;;27.10;99.90;;;;;;4943269;29;20487;-80
2023/09/29 10:34:41;;;;;;;3.73;3.43;;;28.20;99.90;;;;;;4768902;29;20470;-80
2023/09/29 10:37:14;;;;;;;4.30;3.87;;;28.00;99.90;;;;;;4856497;29;20490;-79
2023/09/29 10:43:27;;;;;;;4.27;3.80;;;28.30;99.90;;;;;;5000942;28;20438;-85
2023/09/29 10:46:31;;;;;;;4.73;3.37;;;28.40;99.90;;;;;;5025436;28;20538;-81
2023/09/29 10:49:15;;;;;;;3.93;3.53;;;29.10;99.90;;;;;;5024781;28;20528;-80
2023/09/29 10:52:14;;;;;;;4.03;3.63;;;29.40;99.90;;;;;;5020807;28;20851;-79
2023/09/29 10:54:59;;;;;;;3.43;3.23;;;29.80;99.90;;;;;;5019965;28;20928;-79
2023/09/29 10:57:36;;;;;;;4.13;3.73;;;30.30;99.90;;;;;;5018688;28;20466;-81
2023/09/29 11:00:17;;;;;;;3.33;3.03;;;30.40;99.90;;;;;;5020703;28;20447;-79
2023/09/29 11:03:03;;;;;;;3.70;3.20;;;30.50;99.90;;;;;;4999713;28;20483;-80
2023/09/29 11:05:53;;;;;;;6.27;3.70;;;30.40;99.90;;;;;;5008300;28;20499;-80
2023/09/29 11:08:44;;;;;;;3.67;3.17;;;30.20;99.90;;;;;;5021014;28;20438;-81
2023/09/29 11:11:23;;;;;;;3.10;2.80;;;30.10;99.90;;;;;;5019674;28;20478;-79
2023/09/29 11:14:08;;;;;;;4.77;3.50;;;30.10;99.90;;;;;;5018800;28;20483;-81
2023/09/29 11:19:35;;;;;;;3.90;3.60;;;30.70;99.00;;;;;;5015498;28;20514;-82
2023/09/29 11:22:20;;;;;;;3.80;3.50;;;30.80;98.80;;;;;;5028139;28;20872;-80
2023/09/29 11:25:00;;;;;;;4.50;3.97;;;30.70;98.60;;;;;;5024483;28;20478;-80
2023/09/29 11:27:34;;;;;;;4.30;3.57;;;30.80;98.50;;;;;;5023911;28;20522;-79
2023/09/29 11:30:06;;;;;;;3.67;3.37;;;33.20;99.20;;;;;;5022926;28;20497;-79
2023/09/29 11:32:39;;;;;;;4.00;3.57;;;;;;;;;;5025730;28;20501;-80
2023/09/29 11:35:16;;;;;;;3.60;3.40;;;31.20;97.60;;;;;;5028344;28;20503;-80
2023/09/29 11:37:53;;;;;;;4.03;3.70;;;31.40;97.60;;;;;;5030939;28;20447;-84
2023/09/29 11:43:36;;;;;;;4.63;3.57;;;31.80;97.10;;;;;;4992401;28;20876;-81
2023/09/29 11:46:14;;;;;;;4.00;3.57;;;31.80;96.60;;;;;;5020481;28;20513;-81
2023/09/29 11:48:42;;;;;;;4.20;3.80;;;31.30;97.00;;;;;;5019259;28;20455;-80
2023/09/29 11:51:16;;;;;;;4.13;3.80;;;31.40;97.00;;;;;;5020006;28;20470;-83
2023/09/29 11:53:50;;;;;;;9.93;4.77;;;31.10;97.60;;;;;;5018294;28;20543;-80
2023/09/29 11:56:33;;;;;;;4.27;3.60;;;31.20;97.10;;;;;;5017300;28;20476;-82
2023/09/29 12:02:22;;;;;;;3.53;3.23;;;30.70;97.10;;;;;;5000297;28;20858;-82
2023/09/29 12:05:01;;;;;;;4.10;3.70;;;30.30;97.50;;;;;;5003856;28;20634;-81
2023/09/29 12:07:47;;;;;;;4.67;3.30;;;30.30;97.20;;;;;;5009195;28;20479;-81
2023/09/29 12:10:32;;;;;;;4.27;3.70;;;31.00;96.80;;;;;;5012014;28;20470;-79
2023/09/29 12:13:48;;;;;;;7.47;3.67;;;31.30;96.10;;;;;;5013965;28;20956;-82
2023/09/29 12:16:55;;;;;;;5.00;3.90;;;31.70;95.90;;;;;;4988211;28;20467;-80
2023/09/29 12:23:29;;;;;;;3.83;3.50;;;31.40;94.80;;;;;;4946135;29;20439;-81
2023/09/29 12:26:57;;;;;;;4.07;3.67;;;31.50;94.70;;;;;;4950079;29;20537;-84
2023/09/29 12:29:52;;;;;;;6.00;3.73;;;31.60;94.80;;;;;;4984352;28;20451;-78
2023/09/29 12:36:22;;;;;;;3.47;3.13;;;30.80;94.90;;;;;;4983271;28;20494;-80
2023/09/29 12:40:05;;;;;;;;;;;;;;;;;;;;;
2023/09/29 12:46:34;;;;;;;3.50;3.20;;;31.50;93.80;;;;;;4868800;29;20446;-83
2023/09/29 12:50:07;;;;;;;3.57;3.27;;;31.70;93.70;;;;;;4923941;29;20456;-82
2023/09/29 12:52:55;;;;;;;4.90;3.07;;;31.80;92.20;;;;;;4912818;29;20463;-80
2023/09/29 12:55:58;;;;;;;2.93;2.73;;;31.70;91.80;;;;;;4935661;29;20559;-83
2023/09/29 13:05:29;;;;;;;3.20;2.90;;;31.80;91.20;;;;;;4984918;28;20431;-79
2023/09/29 13:09:01;;;;;;;3.13;2.93;;;31.70;91.50;;;;;;4993841;28;20441;-81
2023/09/29 13:15:31;;;;;;;3.80;2.93;;;32.00;91.20;;;;;;4956213;28;20511;-79
2023/09/29 13:18:51;;;;;;;3.97;3.57;;;31.80;91.60;;;;;;4985190;28;20521;-80
2023/09/29 13:21:43;;;;;;;4.53;3.10;;;31.40;91.80;;;;;;4992206;28;20525;-82
2023/09/29 13:27:35;;;;;;;2.80;2.47;;;31.20;91.40;;;;;;4988383;28;20464;-82
2023/09/29 13:33:09;;;;;;;3.90;3.20;;;31.00;91.40;;;;;;4983958;28;20477;-79
2023/09/29 13:36:03;;;;;;;3.37;3.17;;;31.00;91.50;;;;;;4989418;28;20492;-82
2023/09/29 13:38:58;;;;;;;3.47;3.17;;;31.20;91.40;;;;;;4981362;28;20473;-80
2023/09/29 13:41:39;;;;;;;2.83;2.63;;;31.30;91.70;;;;;;4986927;28;20464;-79
2023/09/29 13:44:36;;;;;;;3.60;3.30;;;30.90;91.80;;;;;;4984050;28;20515;-80
2023/09/29 13:47:26;;;;;;;3.47;3.17;;;30.60;92.20;;;;;;4985026;28;20460;-80
2023/09/29 13:50:25;;;;;;;3.10;2.80;;;30.30;92.90;;;;;;4988747;28;20436;-79
2023/09/29 13:53:23;;;;;;;3.43;3.23;;;29.80;93.40;;;;;;4986081;28;20434;-79
2023/09/29 13:56:06;;;;;;;3.50;3.20;;;29.80;93.80;;;;;;4985682;28;20492;-82
2023/09/29 14:01:39;;;;;;;3.80;3.50;;;29.50;94.50;;;;;;4989687;28;20480;-84
2023/09/29 14:04:42;;;;;;;3.67;3.37;;;29.20;94.50;;;;;;4988783;28;20451;-79
2023/09/29 14:07:21;;;;;;;3.20;3.00;;;29.60;94.70;;;;;;4945584;29;20455;-82
2023/09/29 14:09:56;;;;;;;3.17;2.90;;;29.90;94.50;;;;;;4951937;28;20482;-81
2023/09/29 14:12:40;;;;;;;3.90;3.60;;;30.00;94.20;;;;;;4987024;28;20524;-80
2023/09/29 14:15:14;;;;;;;3.70;3.40;;;30.40;94.10;;;;;;4990006;28;20489;-82
2023/09/29 14:17:51;;;;;;;3.80;3.40;;;30.70;93.70;;;;;;4988502;28;20446;-79
2023/09/29 14:20:37;;;;;;;3.43;3.13;;;31.10;93.50;;;;;;4989861;28;20449;-80
2023/09/29 14:23:11;;;;;;;3.40;3.10;;;31.30;93.00;;;;;;4988277;28;20453;-81
2023/09/29 14:25:47;;;;;;;3.80;3.23;;;31.30;93.20;;;;;;4989230;28;20472;-82
2023/09/29 14:28:27;;;;;;;3.10;2.90;;;31.60;93.00;;;;;;4989784;28;20545;-81
2023/09/29 14:31:04;;;;;;;3.13;2.87;;;30.50;92.50;;;;;;4983506;28;20536;-80
2023/09/29 14:33:48;;;;;;;3.93;2.87;;;30.70;92.70;;;;;;4985644;28;20465;-80
2023/09/29 14:39:48;;;;;;;3.70;3.27;;;30.00;94.00;;;;;;4930219;28;20464;-80
2023/09/29 14:42:38;;;;;;;4.30;3.90;;;29.60;96.00;;;;;;4989316;28;20449;-83
2023/09/29 14:46:07;;;;;;;;;;;;;;;;;;;;;
2023/09/29 14:52:57;;;;;;;4.53;3.50;;;27.30;99.90;;;;;;4926151;29;20454;-82
2023/09/29 14:59:18;;;;;;;9.00;4.80;;;26.90;99.90;;;;;;4966854;28;20480;-80
2023/09/29 15:02:23;;;;;;;5.00;3.80;;;26.80;99.90;;;;;;4922207;29;20460;-83
2023/09/29 15:05:31;;;;;;;4.00;3.43;;;26.80;99.90;;;;;;4922405;29;20465;-83
2023/09/29 15:08:14;;;;;;;4.20;3.90;;;26.60;99.90;;;;;;4902295;29;20456;-80
2023/09/29 15:11:34;;;;;;;4.17;3.77;;;26.30;99.90;;;;;;4924408;29;20862;-80
2023/09/29 15:25:01;;;;;;;5.80;4.57;;;25.60;99.90;;;;;;4907632;29;20468;-79
2023/09/29 15:35:13;;;;;;;;;;;;;;;;;;;;;
2023/09/29 15:54:19;;;;;;;8.13;6.13;;;24.00;99.90;;;;;;4905504;29;20572;-79
2023/09/29 15:57:13;;;;;;;10.53;5.50;;;23.70;99.90;;;;;;4978591;28;20477;-82
2023/09/29 16:03:26;;;;;;;9.90;6.20;;;23.80;99.90;;;;;;4988200;28;20478;-81
2023/09/29 16:06:24;;;;;;;12.10;7.23;;;23.70;99.90;;;;;;4984538;28;20846;-79
2023/09/29 16:13:02;;;;;;;12.00;8.60;;;23.30;99.90;;;;;;4884029;29;20884;-81
2023/09/29 16:30:05;;;;;;;;;;;;;;;;;;;;;
2023/09/29 16:33:32;;;;;;;15.03;10.53;;;22.40;99.90;;;;;;4806465;28;20448;-80
2023/09/29 16:39:49;;;;;;;20.10;12.70;;;22.50;99.90;;;;;;4915468;29;20569;-80
2023/09/29 16:42:33;;;;;;;22.67;13.90;;;22.30;99.90;;;;;;4983916;28;20444;-81
2023/09/29 16:45:05;;;;;;;21.83;14.30;;;22.20;99.90;;;;;;5001841;28;20475;-78
2023/09/29 16:47:49;;;;;;;26.80;15.70;;;22.20;99.90;;;;;;5003013;28;20452;-79
2023/09/29 16:51:03;;;;;;;25.33;16.50;;;22.20;99.90;;;;;;5005633;28;20490;-79
2023/09/29 16:54:02;;;;;;;29.80;16.43;;;22.10;99.90;;;;;;5006403;28;20458;-82
2023/09/29 16:56:56;;;;;;;26.70;16.67;;;22.00;99.90;;;;;;5004615;28;20546;-81
2023/09/29 16:59:51;;;;;;;27.50;17.63;;;22.00;99.90;;;;;;5005188;28;20483;-82
2023/09/29 17:02:37;;;;;;;26.20;17.57;;;21.90;99.90;;;;;;5005202;28;20460;-82
2023/09/29 17:09:02;;;;;;;32.67;20.17;;;21.60;99.90;;;;;;4965927;28;20471;-80
2023/09/29 17:11:32;;;;;;;30.87;17.80;;;21.80;99.90;;;;;;5003228;28;20475;-79
2023/09/29 17:14:18;;;;;;;31.37;18.40;;;21.80;99.90;;;;;;5009846;28;20448;-81
2023/09/29 17:17:09;;;;;;;31.27;17.33;;;21.70;99.90;;;;;;5009221;28;20993;-80
2023/09/29 17:19:43;;;;;;;29.20;17.60;;;21.70;99.90;;;;;;5007185;28;20941;-80
2023/09/29 17:22:33;;;;;;;25.97;17.10;;;21.70;99.90;;;;;;5009268;28;20456;-81
2023/09/29 17:31:52;;;;;;;28.30;15.80;;;21.50;99.90;;;;;;4907629;29;20433;-82
2023/09/29 17:38:01;;;;;;;29.50;16.97;;;21.40;99.90;;;;;;5006030;28;20476;-79
2023/09/29 17:47:19;;;;;;;26.37;15.70;;;21.30;99.90;;;;;;4886256;29;20480;-81
2023/09/29 17:50:35;;;;;;;26.57;15.50;;;21.20;99.90;;;;;;4908113;29;20457;-82
2023/09/29 17:57:21;;;;;;;;;;;;;;;;;;;;;
2023/09/29 18:07:03;;;;;;;26.63;16.33;;;21.00;99.90;;;;;;5001194;28;20471;-82
2023/09/29 18:29:32;;;;;;;22.70;13.70;;;20.80;99.90;;;;;;4957914;29;21055;-79
2023/09/29 18:32:11;;;;;;;21.60;13.00;;;20.80;99.90;;;;;;4957363;29;20461;-80
2023/09/29 18:34:42;;;;;;;20.97;12.43;;;20.80;99.90;;;;;;5047422;28;20512;-78
2023/09/29 18:37:25;;;;;;;23.60;13.60;;;20.70;99.90;;;;;;5058083;28;20829;-80
2023/09/29 18:59:05;;;;;;;;;;;;;;;;;;;;;
2023/09/29 19:02:05;;;;;;;;;;;;;;;;;;;;;
2023/09/29 19:04:43;;;;;;;17.17;9.97;;;20.40;99.90;;;;;;5039411;28;20512;-84
2023/09/29 19:07:25;;;;;;;18.87;11.00;;;20.40;99.90;;;;;;5061766;28;20460;-80
2023/09/29 19:10:11;;;;;;;18.73;9.93;;;20.30;99.90;;;;;;5062373;28;20441;-83
2023/09/29 19:13:21;;;;;;;19.03;11.10;;;20.30;99.90;;;;;;5065266;28;20450;-81
2023/09/29 19:22:38;;;;;;;14.70;8.90;;;20.20;99.90;;;;;;5036653;28;20450;-81
2023/09/29 19:25:13;;;;;;;14.50;8.77;;;19.90;99.90;;;;;;5054996;28;20465;-81
2023/09/29 19:27:45;;;;;;;15.37;8.50;;;20.10;99.90;;;;;;5062967;28;21092;-82
2023/09/29 19:30:22;;;;;;;15.53;9.17;;;20.00;99.90;;;;;;5066156;28;20522;-81
2023/09/29 19:32:51;;;;;;;14.97;7.77;;;20.00;99.90;;;;;;5065944;28;20540;-81
2023/09/29 19:35:25;;;;;;;13.53;7.53;;;20.00;99.90;;;;;;5064063;28;20481;-79
2023/09/29 19:38:12;;;;;;;12.17;6.53;;;19.90;99.90;;;;;;5064090;28;20486;-81
2023/09/29 19:50:13;;;;;;;14.53;7.30;;;19.80;99.90;;;;;;5057338;28;20422;-83